Time;durP1;ratioP1;P1;durP2;ratioP2;P2;SDS_P1;SDS_P2;PMS_P1;PMS_P2;Temp;Humidity;BMP_temperature;BMP_pressure;BME280_temperature;BME280_humidity;BME280_pressure;Samples;Min_cycle;Max_cycle;Signal;HPM_P1;HPM_P2
2023/03/09 00:01:53;;;;;;;36.75;20.37;;;;;;;7.32;100.00;99153.08;1769448;81;21234;-84
2023/03/09 00:04:58;;;;;;;42.95;20.72;;;;;;;7.35;100.00;99139.64;1747977;81;21182;-84
2023/03/09 00:08:05;;;;;;;49.98;24.57;;;;;;;7.33;100.00;99135.72;1768108;81;21217;-83
2023/03/09 00:11:14;;;;;;;41.20;21.93;;;;;;;7.36;100.00;99138.61;1769707;81;21771;-85
2023/03/09 00:14:22;;;;;;;40.37;20.63;;;;;;;7.37;100.00;99138.41;1769636;81;21261;-83
2023/03/09 00:17:27;;;;;;;34.53;18.65;;;;;;;7.41;100.00;99127.50;1769692;81;21818;-85
2023/03/09 00:20:33;;;;;;;34.58;18.67;;;;;;;7.44;100.00;99122.22;1768384;81;21179;-84
2023/03/09 00:23:40;;;;;;;36.25;17.82;;;;;;;7.40;100.00;99110.01;1769610;81;21281;-85
2023/03/09 00:26:49;;;;;;;34.13;19.23;;;;;;;7.35;100.00;99120.60;1769771;81;21237;-84
2023/03/09 00:29:55;;;;;;;35.50;18.45;;;;;;;7.34;100.00;99121.12;1769253;81;21202;-83
2023/03/09 00:33:00;;;;;;;32.15;19.15;;;;;;;7.35;100.00;99124.16;1768119;81;21202;-84
2023/03/09 00:36:06;;;;;;;37.63;18.25;;;;;;;7.33;100.00;99124.00;1768328;81;21238;-84
2023/03/09 00:39:13;;;;;;;34.53;18.45;;;;;;;7.35;100.00;99120.08;1768578;81;21139;-84
2023/03/09 00:42:19;;;;;;;33.92;17.12;;;;;;;7.32;100.00;99109.56;1769594;81;21194;-84
2023/03/09 00:45:25;;;;;;;34.58;19.48;;;;;;;7.30;100.00;99097.19;1769732;81;21190;-84
2023/03/09 00:48:32;;;;;;;43.42;20.00;;;;;;;7.33;100.00;99101.72;1769315;81;21214;-84
2023/03/09 00:51:38;;;;;;;31.30;18.17;;;;;;;7.37;100.00;99094.05;1768258;81;21218;-84
2023/03/09 00:54:43;;;;;;;32.98;19.87;;;;;;;7.38;100.00;99095.21;1769705;81;21190;-84
2023/03/09 00:57:49;;;;;;;38.28;18.00;;;;;;;7.38;100.00;99088.41;1768264;81;21194;-84
2023/03/09 01:00:54;;;;;;;30.40;15.88;;;;;;;7.43;100.00;99094.17;1719924;83;21253;-84
2023/03/09 01:04:00;;;;;;;35.58;19.87;;;;;;;7.40;100.00;99094.53;1719830;83;21205;-84
2023/03/09 01:07:06;;;;;;;31.65;18.77;;;;;;;7.39;100.00;99094.20;1721243;83;21772;-84
2023/03/09 01:10:13;;;;;;;33.38;18.92;;;;;;;7.39;100.00;99081.96;1720009;83;21238;-85
2023/03/09 01:13:19;;;;;;;35.25;19.82;;;;;;;7.40;100.00;99085.01;1721010;83;21218;-85
2023/03/09 01:16:25;;;;;;;27.55;17.17;;;;;;;7.42;100.00;99087.02;1721301;83;21210;-84
2023/03/09 01:19:30;;;;;;;29.98;16.75;;;;;;;7.38;100.00;99093.84;1719959;83;21226;-83
2023/03/09 01:22:36;;;;;;;30.25;18.80;;;;;;;7.34;100.00;99111.59;1721360;83;21214;-84
2023/03/09 01:25:41;;;;;;;29.32;17.90;;;;;;;7.35;100.00;99135.05;1721306;83;21738;-84
2023/03/09 01:28:48;;;;;;;34.50;21.17;;;;;;;7.30;100.00;99144.27;1719793;82;21347;-84
2023/03/09 01:31:54;;;;;;;30.90;19.35;;;;;;;7.33;100.00;99118.05;1719896;83;21190;-83
2023/03/09 01:35:01;;;;;;;39.23;20.77;;;;;;;7.39;100.00;99109.17;1721211;83;21477;-84
2023/03/09 01:38:07;;;;;;;34.70;21.37;;;;;;;7.36;100.00;99131.29;1719989;83;22054;-84
2023/03/09 01:41:13;;;;;;;38.60;20.43;;;;;;;7.34;100.00;99140.65;1719913;83;21265;-84
2023/03/09 01:44:20;;;;;;;30.05;18.05;;;;;;;7.36;100.00;99141.33;1721219;83;21206;-84
2023/03/09 01:47:25;;;;;;;38.20;20.65;;;;;;;7.41;100.00;99126.14;1720058;83;21209;-84
2023/03/09 01:50:34;;;;;;;37.13;20.23;;;;;;;7.43;100.00;99126.81;1720178;83;21720;-84
2023/03/09 01:53:27;;;;;;;27.50;18.17;;;;;;;7.41;100.00;99126.14;1721431;83;21210;-84
2023/03/09 01:56:14;;;;;;;35.45;20.08;;;;;;;7.46;100.00;99119.30;1721365;83;21241;-84
2023/03/09 01:59:06;;;;;;;26.50;17.55;;;;;;;7.45;100.00;99126.63;1722581;81;21214;-85
2023/03/09 02:02:11;;;;;;;33.30;19.40;;;;;;;7.46;100.00;99133.75;1769806;81;21178;-85
2023/03/09 02:05:33;;;;;;;38.70;20.17;;;;;;;7.41;100.00;99142.46;1769669;81;21190;-84
2023/03/09 02:08:40;;;;;;;34.35;21.87;;;;;;;7.36;100.00;99146.25;1769639;81;21187;-85
2023/03/09 02:11:46;;;;;;;33.20;20.25;;;;;;;7.33;100.00;99133.01;1769866;81;21190;-84
2023/03/09 02:14:52;;;;;;;34.08;20.05;;;;;;;7.34;100.00;99148.81;1781964;80;21192;-83
2023/03/09 02:18:00;;;;;;;26.45;18.48;;;;;;;7.30;100.00;99152.44;1782547;80;21161;-85
2023/03/09 02:21:31;;;;;;;33.02;21.02;;;;;;;7.27;100.00;99150.07;1782855;80;21205;-84
2023/03/09 02:24:48;;;;;;;33.60;19.57;;;;;;;7.27;100.00;99133.75;1784059;80;21177;-84
2023/03/09 02:27:53;;;;;;;34.35;21.07;;;;;;;7.29;100.00;99130.35;1781288;80;21220;-84
2023/03/09 02:30:59;;;;;;;32.30;21.97;;;;;;;7.27;100.00;99136.98;1768089;81;21780;-84
2023/03/09 02:34:07;;;;;;;33.60;21.05;;;;;;;7.29;100.00;99133.07;1768992;81;21250;-84
2023/03/09 02:37:33;;;;;;;31.95;20.60;;;;;;;7.33;100.00;99125.36;1769057;81;21178;-84
2023/03/09 02:40:42;;;;;;;35.25;21.35;;;;;;;7.36;100.00;99129.92;1768716;81;21595;-84
2023/03/09 02:44:00;;;;;;;32.15;20.20;;;;;;;7.42;100.00;99137.34;1770696;81;21199;-85
2023/03/09 02:47:09;;;;;;;36.10;19.40;;;;;;;7.48;100.00;99141.71;1774772;81;21208;-84
2023/03/09 02:50:18;;;;;;;31.68;20.80;;;;;;;7.46;100.00;99134.27;1774577;81;21251;-84
2023/03/09 02:53:23;;;;;;;31.50;19.02;;;;;;;7.46;100.00;99129.66;1773530;81;21215;-84
2023/03/09 02:56:29;;;;;;;30.40;20.52;;;;;;;7.44;100.00;99119.50;1774878;81;21180;-84
2023/03/09 02:59:35;;;;;;;32.35;20.80;;;;;;;7.41;100.00;99128.86;1774957;81;21227;-84
2023/03/09 03:02:44;;;;;;;29.60;19.65;;;;;;;7.46;100.00;99128.30;1774117;81;21220;-85
2023/03/09 03:05:52;;;;;;;34.25;19.23;;;;;;;7.51;100.00;99129.95;1774755;81;21224;-85
2023/03/09 03:08:59;;;;;;;36.25;23.38;;;;;;;7.46;100.00;99141.91;1774867;81;21691;-84
2023/03/09 03:12:06;;;;;;;38.20;22.25;;;;;;;7.40;100.00;99149.45;1774839;81;21874;-84
2023/03/09 03:15:12;;;;;;;39.60;22.10;;;;;;;7.37;100.00;99141.65;1774815;81;21180;-84
2023/03/09 03:18:18;;;;;;;33.38;22.48;;;;;;;7.38;100.00;99133.30;1773873;81;21204;-84
2023/03/09 03:21:17;;;;;;;32.53;20.80;;;;;;;7.37;100.00;99134.33;1773653;81;21726;-85
2023/03/09 03:24:23;;;;;;;34.33;20.92;;;;;;;7.40;100.00;99135.85;1773459;81;21230;-85
2023/03/09 03:27:29;;;;;;;36.23;21.37;;;;;;;7.38;100.00;99141.45;1774821;81;21176;-84
2023/03/09 03:30:36;;;;;;;35.40;22.05;;;;;;;7.39;100.00;99139.09;1773714;81;21317;-84
2023/03/09 03:33:42;;;;;;;29.85;19.02;;;;;;;7.40;100.00;99124.97;1774878;81;21180;-85
2023/03/09 03:36:49;;;;;;;28.75;20.35;;;;;;;7.37;100.00;99120.73;1773299;80;21738;-85
2023/03/09 03:39:58;;;;;;;38.73;23.50;;;;;;;7.33;100.00;99112.60;1774841;81;21184;-85
2023/03/09 03:43:05;;;;;;;35.33;22.87;;;;;;;7.30;100.00;99118.44;1774859;81;21885;-84
2023/03/09 03:46:12;;;;;;;40.00;25.77;;;;;;;7.36;100.00;99120.41;1774731;81;21168;-85
2023/03/09 03:49:14;;;;;;;37.73;22.75;;;;;;;7.38;100.00;99120.21;1774935;81;21184;-84
2023/03/09 03:52:07;;;;;;;35.63;22.42;;;;;;;7.37;100.00;99111.73;1773407;81;21204;-84
2023/03/09 03:55:14;;;;;;;37.38;22.75;;;;;;;7.35;100.00;99113.28;1775016;81;21743;-84
2023/03/09 03:58:14;;;;;;;31.35;20.85;;;;;;;7.35;100.00;99109.20;1774979;81;21717;-84
2023/03/09 04:01:19;;;;;;;39.80;22.98;;;;;;;7.28;100.00;99109.59;1749841;81;21677;-84
2023/03/09 04:04:28;;;;;;;35.08;24.23;;;;;;;7.22;100.00;99112.22;1771927;81;21176;-84
2023/03/09 04:07:35;;;;;;;39.88;24.35;;;;;;;7.20;100.00;99111.05;1770524;81;21723;-84
2023/03/09 04:10:40;;;;;;;31.57;22.10;;;;;;;7.26;100.00;99111.67;1771857;81;21181;-85
2023/03/09 04:13:48;;;;;;;35.95;22.20;;;;;;;7.27;100.00;99111.15;1771655;81;21186;-84
2023/03/09 04:16:55;;;;;;;37.98;22.67;;;;;;;7.26;100.00;99105.39;1770974;81;21759;-85
2023/03/09 04:20:01;;;;;;;34.45;22.00;;;;;;;7.32;100.00;99106.00;1771758;81;21184;-85
2023/03/09 04:23:09;;;;;;;45.55;28.35;;;;;;;7.30;100.00;99110.27;1770337;81;21798;-85
2023/03/09 04:26:17;;;;;;;38.70;26.75;;;;;;;7.28;100.00;99100.59;1771958;81;21191;-85
2023/03/09 04:29:29;;;;;;;35.33;22.70;;;;;;;7.27;100.00;99103.83;1747685;81;21200;-85
2023/03/09 04:32:37;;;;;;;41.28;25.32;;;;;;;7.33;100.00;99093.56;1770224;81;21168;-85
2023/03/09 04:35:44;;;;;;;42.17;27.25;;;;;;;7.36;100.00;99093.20;1770582;81;21838;-85
2023/03/09 04:38:53;;;;;;;36.40;25.23;;;;;;;7.43;100.00;99093.30;1771914;81;21165;-85
2023/03/09 04:41:59;;;;;;;40.38;24.92;;;;;;;7.38;100.00;99088.92;1771342;81;21239;-84
2023/03/09 04:45:05;;;;;;;45.73;25.92;;;;;;;7.29;100.00;99092.27;1771227;81;21165;-84
2023/03/09 04:48:14;;;;;;;37.58;24.72;;;;;;;7.33;100.00;99105.80;1769802;81;21184;-85
2023/03/09 04:51:20;;;;;;;38.63;25.40;;;;;;;7.35;100.00;99094.76;1771086;81;21192;-84
2023/03/09 04:54:28;;;;;;;40.80;26.57;;;;;;;7.27;100.00;99099.75;1769547;81;21216;-85
2023/03/09 04:57:35;;;;;;;37.75;24.55;;;;;;;7.18;100.00;99084.54;1771238;81;21199;-84
2023/03/09 05:00:44;;;;;;;37.20;24.37;;;;;;;7.10;100.00;99088.69;1769727;81;21210;-85
2023/03/09 05:03:50;;;;;;;42.95;26.77;;;;;;;7.07;100.00;99087.71;1767458;81;21224;-83
2023/03/09 05:06:58;;;;;;;41.15;26.07;;;;;;;7.05;100.00;99091.11;1765019;81;21188;-85
2023/03/09 05:10:05;;;;;;;42.78;26.80;;;;;;;7.08;100.00;99084.80;1766187;81;21217;-84
2023/03/09 05:13:13;;;;;;;46.18;28.23;;;;;;;7.09;100.00;99081.05;1765304;81;21207;-85
2023/03/09 05:16:20;;;;;;;56.70;32.45;;;;;;;7.09;100.00;99082.92;1765400;81;21208;-84
2023/03/09 05:19:26;;;;;;;58.70;34.30;;;;;;;7.00;100.00;99084.86;1766214;81;21188;-84
2023/03/09 05:22:32;;;;;;;53.80;33.67;;;;;;;6.98;100.00;99095.61;1765933;81;21199;-85
2023/03/09 05:25:39;;;;;;;57.50;33.00;;;;;;;6.90;100.00;99093.27;1766556;81;21220;-85
2023/03/09 05:28:45;;;;;;;62.43;33.67;;;;;;;6.91;100.00;99096.83;1766792;81;21172;-84
2023/03/09 05:31:51;;;;;;;60.70;36.33;;;;;;;6.94;100.00;99092.92;1765513;81;21279;-84
2023/03/09 05:34:59;;;;;;;68.97;40.00;;;;;;;6.99;100.00;99101.37;1766441;81;21165;-84
2023/03/09 05:38:06;;;;;;;58.15;34.98;;;;;;;7.06;100.00;99107.27;1766444;81;21375;-84
2023/03/09 05:41:14;;;;;;;64.30;35.20;;;;;;;7.05;100.00;99096.55;1765053;81;21192;-84
2023/03/09 05:44:25;;;;;;;63.40;35.25;;;;;;;7.09;100.00;99087.00;1766780;81;21192;-85
2023/03/09 05:47:30;;;;;;;60.98;36.23;;;;;;;7.18;100.00;99088.09;1763998;81;21133;-85
2023/03/09 05:50:36;;;;;;;58.83;35.48;;;;;;;7.25;100.00;99081.94;1765511;81;21723;-85
2023/03/09 05:53:42;;;;;;;57.17;31.85;;;;;;;7.35;100.00;99075.72;1764116;81;21267;-85
2023/03/09 05:56:49;;;;;;;53.63;30.57;;;;;;;7.42;100.00;99077.48;1765458;81;21763;-84
2023/03/09 05:59:55;;;;;;;57.05;33.05;;;;;;;7.47;100.00;99076.09;1766161;81;21834;-84
2023/03/09 06:03:11;;;;;;;54.38;29.45;;;;;;;7.45;100.00;99073.56;1769270;81;21205;-84
2023/03/09 06:06:19;;;;;;;52.48;29.42;;;;;;;7.45;100.00;99069.48;1770324;81;21189;-84
2023/03/09 06:09:25;;;;;;;69.97;39.85;;;;;;;7.42;100.00;99066.61;1764710;81;21228;-85
2023/03/09 06:12:34;;;;;;;53.05;30.02;;;;;;;7.42;100.00;99067.97;1743762;81;21212;-84
2023/03/09 06:15:44;;;;;;;43.83;26.30;;;;;;;7.53;100.00;99070.77;1744958;81;21740;-85
2023/03/09 06:18:49;;;;;;;49.60;30.32;;;;;;;7.65;100.00;99073.33;1763622;81;21172;-85
2023/03/09 06:21:55;;;;;;;42.55;26.23;;;;;;;7.79;100.00;99082.53;1761149;81;21356;-85
2023/03/09 06:25:01;;;;;;;41.83;24.60;;;;;;;7.93;100.00;99080.31;1761082;81;21105;-85
2023/03/09 06:28:09;;;;;;;38.95;24.52;;;;;;;8.02;100.00;99082.94;1757330;81;21178;-86
2023/03/09 06:31:19;;;;;;;41.98;24.72;;;;;;;8.13;100.00;99086.01;1763662;81;21763;-86
2023/03/09 06:34:26;;;;;;;40.35;21.07;;;;;;;8.22;100.00;99075.86;1744316;80;21192;-86
2023/03/09 06:37:27;;;;;;;40.33;24.82;;;;;;;8.24;100.00;99079.25;1763726;81;21921;-85
2023/03/09 06:40:21;;;;;;;45.58;28.52;;;;;;;8.20;100.00;99076.05;1764578;81;21885;-84
2023/03/09 06:43:28;;;;;;;44.83;26.02;;;;;;;8.18;100.00;99075.91;1767388;79;21170;-87
2023/03/09 06:46:34;;;;;;;42.13;25.43;;;;;;;8.17;100.00;99071.50;1750042;81;21271;-86
2023/03/09 06:49:43;;;;;;;36.15;22.58;;;;;;;8.14;100.00;99077.35;1758484;81;21169;-85
2023/03/09 06:52:54;;;;;;;49.63;25.23;;;;;;;8.19;100.00;99068.92;1767346;81;21209;-85
2023/03/09 06:56:12;;;;;;;38.67;23.75;;;;;;;8.23;100.00;99076.70;1763299;81;21315;-86
2023/03/09 06:59:17;;;;;;;47.55;26.77;;;;;;;8.24;100.00;99077.05;1764516;81;21197;-85
2023/03/09 07:02:23;;;;;;;48.10;25.68;;;;;;;8.30;100.00;99079.84;1764967;81;21600;-85
2023/03/09 07:05:28;;;;;;;42.60;25.45;;;;;;;8.28;100.00;99086.01;1765881;79;21760;-85
2023/03/09 07:08:34;;;;;;;42.40;24.85;;;;;;;8.26;100.00;99089.42;1758755;81;21803;-84
2023/03/09 07:11:40;;;;;;;40.20;24.47;;;;;;;8.26;100.00;99083.13;1764715;80;21802;-85
2023/03/09 07:14:46;;;;;;;45.38;26.20;;;;;;;8.38;100.00;99093.91;1764317;81;21189;-86
2023/03/09 07:17:54;;;;;;;48.25;25.40;;;;;;;8.52;100.00;99090.81;1764949;81;21240;-86
2023/03/09 07:21:01;;;;;;;42.03;27.05;;;;;;;8.73;100.00;99087.25;1763960;81;21169;-85
2023/03/09 07:24:07;;;;;;;43.83;25.32;;;;;;;8.86;100.00;99086.03;1759739;81;21189;-84
2023/03/09 07:27:14;;;;;;;43.73;26.80;;;;;;;9.03;100.00;99094.77;1765087;81;21162;-85
2023/03/09 07:30:21;;;;;;;41.63;24.70;;;;;;;9.18;100.00;99096.92;1756206;79;21180;-85
2023/03/09 07:33:28;;;;;;;41.10;25.40;;;;;;;9.26;100.00;99095.92;1763742;80;21743;-86
2023/03/09 07:36:33;;;;;;;37.83;23.27;;;;;;;9.39;100.00;99092.77;1757712;81;21158;-85
2023/03/09 07:39:38;;;;;;;31.40;21.55;;;;;;;9.48;100.00;99088.85;1763747;81;21177;-85
2023/03/09 07:42:46;;;;;;;32.17;22.30;;;;;;;9.59;100.00;99096.16;1767447;81;21193;-85
2023/03/09 07:45:57;;;;;;;38.05;23.15;;;;;;;9.66;100.00;99088.35;1764924;81;21743;-85
2023/03/09 07:49:03;;;;;;;38.53;22.60;;;;;;;9.84;100.00;99093.83;1765135;80;22269;-85
2023/03/09 07:52:08;;;;;;;41.33;22.42;;;;;;;9.95;100.00;99091.36;1756862;81;21177;-85
2023/03/09 07:55:14;;;;;;;33.88;20.88;;;;;;;10.01;100.00;99090.22;1761046;81;21831;-84
2023/03/09 07:58:20;;;;;;;39.20;21.60;;;;;;;10.14;100.00;99082.94;1762637;81;22056;-86
2023/03/09 08:01:30;;;;;;;38.80;22.62;;;;;;;10.21;99.55;99076.16;1766147;80;21728;-85
2023/03/09 08:04:38;;;;;;;38.42;22.67;;;;;;;10.29;98.49;99075.14;1768095;80;21463;-84
2023/03/09 08:07:49;;;;;;;36.28;21.80;;;;;;;10.35;97.52;99075.69;1767557;79;21823;-85
2023/03/09 08:10:59;;;;;;;35.08;21.95;;;;;;;10.44;97.25;99075.33;1784484;79;21724;-86
2023/03/09 08:14:22;;;;;;;30.60;19.25;;;;;;;10.55;96.90;99078.51;1779801;80;21156;-85
2023/03/09 08:17:30;;;;;;;36.17;21.17;;;;;;;10.66;95.97;99073.79;1733741;82;21216;-85
2023/03/09 08:20:40;;;;;;;38.95;21.10;;;;;;;10.70;95.57;99069.59;1713433;83;21196;-86
2023/03/09 08:23:49;;;;;;;37.00;22.27;;;;;;;10.71;95.08;99061.17;1719998;83;21843;-85
2023/03/09 08:26:56;;;;;;;35.23;19.57;;;;;;;10.77;94.99;99061.39;1715302;83;21878;-85
2023/03/09 08:30:01;;;;;;;35.45;19.92;;;;;;;10.82;94.91;99054.27;1718105;83;21229;-86
2023/03/09 08:33:10;;;;;;;36.85;19.80;;;;;;;10.92;94.57;99061.54;1719142;83;21242;-85
2023/03/09 08:36:24;;;;;;;34.30;18.65;;;;;;;10.93;93.74;99060.48;1719739;83;21261;-85
2023/03/09 08:39:30;;;;;;;25.43;16.12;;;;;;;10.97;93.30;99059.55;1719456;83;21233;-85
2023/03/09 08:42:36;;;;;;;30.80;16.55;;;;;;;11.06;92.93;99053.34;1717669;83;21235;-84
2023/03/09 08:45:42;;;;;;;30.50;16.42;;;;;;;11.20;91.86;99054.50;1718693;83;21201;-86
2023/03/09 08:48:48;;;;;;;29.27;16.20;;;;;;;11.34;91.49;99040.28;1717266;83;21214;-87
2023/03/09 08:51:55;;;;;;;23.62;14.90;;;;;;;11.49;90.13;99050.47;1712663;83;21161;-86
2023/03/09 08:55:05;;;;;;;28.75;13.05;;;;;;;11.62;88.57;99044.14;1714960;82;21259;-84
2023/03/09 08:58:12;;;;;;;26.77;14.87;;;;;;;11.73;87.77;99040.73;1716871;82;21197;-85
2023/03/09 09:01:20;;;;;;;29.27;14.73;;;;;;;11.90;86.56;99032.93;1728341;82;21193;-84
2023/03/09 09:04:26;;;;;;;27.62;14.58;;;;;;;11.98;85.61;99031.83;1727949;82;21173;-84
2023/03/09 09:07:35;;;;;;;23.83;13.32;;;;;;;12.07;85.30;99026.42;1733056;82;21200;-86
2023/03/09 09:10:50;;;;;;;32.35;12.98;;;;;;;12.17;84.99;99028.16;1742149;81;21895;-84
2023/03/09 09:14:21;;;;;;;26.57;15.40;;;;;;;12.27;84.43;99023.58;1712675;83;21201;-86
2023/03/09 09:17:28;;;;;;;24.25;13.18;;;;;;;12.42;84.11;99020.05;1718521;83;21243;-87
2023/03/09 09:20:48;;;;;;;25.45;11.40;;;;;;;12.57;82.67;99013.42;1718363;83;21190;-85
2023/03/09 09:23:59;;;;;;;21.10;10.48;;;;;;;12.66;81.72;99006.08;1715374;83;21230;-84
2023/03/09 09:27:06;;;;;;;24.72;12.75;;;;;;;12.76;79.93;99004.21;1695174;83;21257;-85
2023/03/09 09:30:14;;;;;;;27.48;11.22;;;;;;;12.85;78.20;99007.53;1695242;83;21819;-86
2023/03/09 09:33:20;;;;;;;24.85;13.32;;;;;;;12.91;78.31;99003.34;1718939;83;21779;-86
2023/03/09 09:36:26;;;;;;;34.13;13.55;;;;;;;12.98;77.79;99008.23;1717884;83;21131;-87
2023/03/09 09:39:32;;;;;;;18.87;10.10;;;;;;;13.07;77.83;98994.23;1715398;83;21178;-87
2023/03/09 09:42:50;;;;;;;22.10;11.78;;;;;;;13.18;76.80;98989.41;1717798;83;21217;-87
2023/03/09 09:45:57;;;;;;;24.57;11.03;;;;;;;13.27;76.13;98997.70;1718986;83;21193;-87
2023/03/09 09:49:03;;;;;;;17.48;10.20;;;;;;;13.34;75.25;98994.34;1718574;83;21804;-87
2023/03/09 09:52:47;;;;;;;18.45;10.48;;;;;;;13.43;74.85;98992.15;1719102;83;21464;-85
2023/03/09 09:55:52;;;;;;;21.95;9.90;;;;;;;13.49;72.83;98991.23;1712844;83;21288;-85
2023/03/09 09:59:06;;;;;;;19.00;9.05;;;;;;;13.59;72.52;98992.08;1702931;83;21764;-85
2023/03/09 10:02:56;;;;;;;26.60;15.08;;;;;;;13.64;70.96;98983.99;1709249;83;21324;-86
2023/03/09 10:06:21;;;;;;;14.18;7.70;;;;;;;13.70;69.55;98983.09;1656800;85;21192;-85
2023/03/09 10:09:36;;;;;;;20.30;9.10;;;;;;;13.82;69.41;98981.25;1775558;80;21234;-85
2023/03/09 10:12:37;;;;;;;18.73;8.65;;;;;;;13.95;68.17;98975.59;1764969;80;21236;-88
2023/03/09 10:15:36;;;;;;;17.12;7.70;;;;;;;14.01;67.49;98973.29;1767781;80;22324;-88
2023/03/09 10:18:28;;;;;;;14.07;7.22;;;;;;;14.04;64.82;98967.34;1782613;80;21191;-86
2023/03/09 10:21:26;;;;;;;15.28;6.40;;;;;;;14.07;63.17;98960.55;1759461;80;21164;-85
2023/03/09 10:24:25;;;;;;;16.57;6.22;;;;;;;14.14;63.57;98960.45;1766883;80;21200;-86
2023/03/09 10:27:51;;;;;;;202.45;78.78;;;;;;;14.19;61.44;98953.72;1765810;80;21220;-85
2023/03/09 10:31:07;;;;;;;29.82;13.83;;;;;;;14.27;59.57;98950.65;1781040;80;21181;-85
2023/03/09 10:34:25;;;;;;;50.75;18.48;;;;;;;14.38;59.77;98947.09;1767807;79;21204;-86
2023/03/09 10:37:35;;;;;;;14.15;6.47;;;;;;;14.46;57.46;98945.39;1776491;80;21204;-84
2023/03/09 10:40:50;;;;;;;18.42;6.55;;;;;;;14.50;56.30;98949.38;1783272;80;21240;-85
2023/03/09 10:43:58;;;;;;;10.45;5.22;;;;;;;14.56;55.48;98936.59;1749191;82;21259;-85
2023/03/09 10:47:05;;;;;;;11.35;4.78;;;;;;;14.61;55.64;98940.02;1765915;80;21375;-85
2023/03/09 10:50:15;;;;;;;12.03;5.10;;;;;;;14.70;54.56;98931.72;1780806;80;21228;-85
2023/03/09 10:53:48;;;;;;;11.80;4.40;;;;;;;14.76;52.77;98930.77;1779613;80;21185;-85
2023/03/09 10:56:53;;;;;;;6.62;3.42;;;;;;;14.84;53.04;98922.17;1737510;82;21262;-85
2023/03/09 11:00:15;;;;;;;10.88;4.60;;;;;;;14.92;50.63;98913.56;1733072;82;21192;-86
2023/03/09 11:03:23;;;;;;;8.10;3.80;;;;;;;15.03;50.75;98909.13;1723493;83;21229;-86
2023/03/09 11:06:42;;;;;;;11.08;4.20;;;;;;;15.14;49.37;98898.64;1674204;83;21617;-86
2023/03/09 11:09:55;;;;;;;9.15;3.75;;;;;;;15.19;49.13;98900.13;1660619;83;21191;-85
2023/03/09 11:13:04;;;;;;;15.13;4.10;;;;;;;15.27;48.27;98887.92;1686358;83;21236;-86
2023/03/09 11:16:34;;;;;;;8.13;3.87;;;;;;;15.32;48.02;98899.06;1711220;83;21587;-85
2023/03/09 11:19:38;;;;;;;8.08;4.30;;;;;;;15.34;49.09;98891.41;1703443;83;21222;-85
2023/03/09 11:22:46;;;;;;;7.58;3.40;;;;;;;15.39;47.75;98881.04;1710788;82;21846;-86
2023/03/09 11:26:11;;;;;;;11.53;4.72;;;;;;;15.43;47.58;98878.94;1728638;82;21218;-86
2023/03/09 11:29:28;;;;;;;8.45;3.72;;;;;;;15.47;47.60;98878.72;1732185;82;21220;-88
2023/03/09 11:32:33;;;;;;;12.55;4.20;;;;;;;15.52;46.23;98878.83;1734803;82;21153;-86
2023/03/09 11:35:43;;;;;;;10.28;4.30;;;;;;;15.63;46.04;98873.01;1734386;82;21157;-85
2023/03/09 11:38:51;;;;;;;5.75;3.70;;;;;;;15.74;45.94;98867.19;1734039;82;21303;-85
2023/03/09 11:41:57;;;;;;;11.73;4.35;;;;;;;15.85;45.89;98869.05;1731675;82;21169;-84
2023/03/09 11:45:02;;;;;;;7.65;4.33;;;;;;;15.89;45.71;98867.48;1728242;82;21216;-85
2023/03/09 11:48:11;;;;;;;12.15;6.78;;;;;;;15.91;46.19;98860.37;1713627;82;21160;-86
2023/03/09 11:51:36;;;;;;;13.35;6.05;;;;;;;15.89;46.08;98859.76;1743207;82;21172;-86
2023/03/09 11:54:53;;;;;;;7.33;4.03;;;;;;;15.89;46.06;98852.86;1711002;83;21233;-86
2023/03/09 11:58:07;;;;;;;9.15;4.22;;;;;;;15.89;45.81;98857.84;1714838;83;21184;-85
2023/03/09 12:01:38;;;;;;;11.40;4.73;;;;;;;15.89;45.78;98848.73;1717329;83;21198;-85
2023/03/09 12:04:43;;;;;;;8.93;3.70;;;;;;;15.91;46.00;98851.55;1691992;84;21622;-86
2023/03/09 12:07:58;;;;;;;7.33;3.70;;;;;;;15.97;43.61;98845.04;1706756;83;21204;-85
2023/03/09 12:11:11;;;;;;;16.67;5.40;;;;;;;16.08;43.18;98859.84;1708320;83;21136;-86
2023/03/09 12:14:28;;;;;;;8.08;3.25;;;;;;;16.10;44.11;98851.64;1718959;82;21310;-86
2023/03/09 12:17:43;;;;;;;7.40;3.50;;;;;;;16.18;42.85;98848.16;1703092;82;21265;-86
2023/03/09 12:21:08;;;;;;;6.08;3.65;;;;;;;16.15;40.97;98843.16;1717910;83;21221;-86
2023/03/09 12:24:47;;;;;;;7.20;3.10;;;;;;;16.10;40.37;98844.74;1702501;83;21235;-86
2023/03/09 12:28:04;;;;;;;6.47;3.45;;;;;;;16.02;40.80;98849.27;1725033;82;21730;-87
2023/03/09 12:31:12;;;;;;;6.37;2.87;;;;;;;15.88;41.20;98838.79;1717120;82;21317;-85
2023/03/09 12:34:24;;;;;;;7.47;3.75;;;;;;;15.76;42.48;98838.82;1726171;82;21169;-85
2023/03/09 12:37:46;;;;;;;6.53;3.10;;;;;;;15.72;43.31;98839.05;1740925;82;21172;-85
2023/03/09 12:40:54;;;;;;;7.50;3.35;;;;;;;15.68;41.86;98833.72;1739917;82;21766;-84
2023/03/09 12:44:01;;;;;;;11.20;3.50;;;;;;;15.70;41.55;98820.52;1725350;82;21355;-85
2023/03/09 12:47:08;;;;;;;10.43;3.92;;;;;;;15.74;41.58;98821.70;1738932;82;21637;-85
2023/03/09 12:50:09;;;;;;;10.58;3.35;;;;;;;15.76;41.53;98818.15;1712142;83;21190;-84
2023/03/09 12:53:25;;;;;;;6.47;3.47;;;;;;;15.78;41.63;98816.83;1710224;80;21768;-86
2023/03/09 12:56:34;;;;;;;8.13;3.62;;;;;;;15.76;40.27;98811.26;1718545;83;21184;-85
2023/03/09 12:59:42;;;;;;;4.78;2.80;;;;;;;15.76;39.81;98808.50;1708178;83;21194;-85
2023/03/09 13:02:48;;;;;;;6.58;3.20;;;;;;;15.78;39.71;98808.56;1720304;82;21217;-86
2023/03/09 13:05:55;;;;;;;13.25;3.47;;;;;;;15.78;40.11;98814.63;1713540;82;21241;-87
2023/03/09 13:09:09;;;;;;;7.78;3.00;;;;;;;15.78;40.40;98809.11;1712592;82;21200;-87
2023/03/09 13:12:36;;;;;;;10.48;3.83;;;;;;;15.79;41.14;98810.77;1716591;81;21213;-87
2023/03/09 13:15:42;;;;;;;9.20;3.47;;;;;;;15.74;41.42;98812.05;1715931;83;21750;-88
2023/03/09 13:18:47;;;;;;;6.47;3.17;;;;;;;15.70;41.18;98809.49;1738256;82;21184;-88
2023/03/09 13:22:06;;;;;;;5.28;3.42;;;;;;;15.64;41.58;98804.97;1711801;80;21550;-88
2023/03/09 13:25:49;;;;;;;6.87;3.22;;;;;;;15.55;42.57;98805.33;1712832;81;21176;-87
2023/03/09 13:28:56;;;;;;;11.85;3.75;;;;;;;15.47;42.93;98800.73;1712449;83;21219;-87
2023/03/09 13:32:02;;;;;;;7.05;3.22;;;;;;;15.40;43.38;98804.19;1704537;83;21162;-88
2023/03/09 13:35:09;;;;;;;12.58;5.95;;;;;;;15.36;44.53;98799.70;1692720;82;21199;-88
2023/03/09 13:38:36;;;;;;;19.65;6.90;;;;;;;15.35;44.78;98796.66;1704040;80;21200;-88
2023/03/09 13:41:35;;;;;;;16.60;8.33;;;;;;;15.36;44.59;98796.95;1658542;86;21258;-89
2023/03/09 13:44:43;;;;;;;18.15;7.17;;;;;;;15.36;44.36;98790.60;1730453;82;22319;-87
2023/03/09 13:47:50;;;;;;;20.80;9.13;;;;;;;15.33;44.51;98787.78;1686376;84;21189;-88
2023/03/09 13:50:56;;;;;;;18.30;10.00;;;;;;;15.28;45.00;98794.56;1703189;82;21214;-88
2023/03/09 13:54:03;;;;;;;14.53;7.78;;;;;;;15.21;45.77;98787.83;1732764;81;21217;-87
2023/03/09 13:57:21;;;;;;;15.88;4.97;;;;;;;15.17;46.47;98783.88;1707795;82;21210;-88
2023/03/09 14:00:31;;;;;;;9.43;4.25;;;;;;;15.11;46.54;98785.41;1701483;84;21236;-87
2023/03/09 14:03:41;;;;;;;11.50;4.87;;;;;;;15.04;46.86;98773.96;1702579;84;21238;-87
2023/03/09 14:06:48;;;;;;;12.82;4.85;;;;;;;14.97;47.01;98776.03;1704935;79;21277;-87
2023/03/09 14:10:02;;;;;;;11.33;4.28;;;;;;;14.90;47.11;98771.17;1729036;82;21859;-87
2023/03/09 14:13:22;;;;;;;16.30;6.00;;;;;;;14.83;46.90;98775.45;1710586;81;21274;-87
2023/03/09 14:16:27;;;;;;;12.23;5.95;;;;;;;14.78;47.33;98760.73;1703569;83;22487;-88
2023/03/09 14:19:37;;;;;;;17.27;5.12;;;;;;;14.72;47.29;98763.05;1703186;82;21289;-87
2023/03/09 14:22:44;;;;;;;10.28;3.92;;;;;;;14.66;47.12;98758.52;1704391;83;21214;-88
2023/03/09 14:25:49;;;;;;;9.20;4.17;;;;;;;14.61;47.09;98752.91;1704081;84;21206;-88
2023/03/09 14:29:23;;;;;;;14.23;5.20;;;;;;;14.55;46.51;98748.66;1703550;83;21819;-88
2023/03/09 14:32:38;;;;;;;10.70;4.37;;;;;;;14.51;46.64;98748.01;1702209;84;21784;-88